AU-0121 weather

YKCY
Kilcoy, Queensland, Australia

Public forecast

Using degrees Celsius for public forecast. Weather courtesy of forecast.io.

METAR (pilot weather report)

Closest report is Brisbane International Airport, 38.4 nm (71.2 km) SE. Retrieved 2019/04/19 03:00 UTC (1 hour ago):

YBBN 190300Z 15007KT 9999 -SHRA SCT025 SCT065 24/20 Q1021 INTER 0300/0600 3000 SHRA BKN012

TAF (pilot weather forecast)

Forecast is more than 12 hours old.

Closest forecast is Brisbane International Airport, 38.4 nm (71.2 km) SE. Retrieved 2019/04/18 00:00 UTC (1 day ago):

TAF YBBN 182306Z 1900/2006 13014KT 9999 -SHRA SCT025 BKN040 FM191200 17009KT 9999 -SHRA FEW015 BKN025 OVC040 FM200000 12014KT 9999 -SHRA SCT025 BKN040 INTER 1900/2006 3000 SHRA BKN012